sensor_id;sensor_type;location;lat;lon;timestamp;P1;durP1;ratioP1;P2;durP2;ratioP2
59986;SDS011;46181;51.498;5.392;2023-04-08T00:02:59;16.576;;;8.091999;;
59986;SDS011;46181;51.498;5.392;2023-04-08T00:07:29;16.352;;;8.719998;;
59986;SDS011;46181;51.498;5.392;2023-04-08T00:11:59;18.58;;;7.827999;;
59986;SDS011;46181;51.498;5.392;2023-04-08T00:16:29;18.512;;;8.716;;
59986;SDS011;46181;51.498;5.392;2023-04-08T00:20:59;19.452;;;8.74;;
59986;SDS011;46181;51.498;5.392;2023-04-08T00:25:29;17.628;;;8.844;;
59986;SDS011;46181;51.498;5.392;2023-04-08T00:29:59;19.728;;;9.004002;;
59986;SDS011;46181;51.498;5.392;2023-04-08T00:34:29;20.592;;;9.696;;
59986;SDS011;46181;51.498;5.392;2023-04-08T00:38:59;22.93999;;;9.684001;;
59986;SDS011;46181;51.498;5.392;2023-04-08T00:43:29;26.97599;;;9.871999;;
59986;SDS011;46181;51.498;5.392;2023-04-08T00:47:59;22.644;;;10.316;;
59986;SDS011;46181;51.498;5.392;2023-04-08T00:52:29;21.028;;;9.872;;
59986;SDS011;46181;51.498;5.392;2023-04-08T00:56:59;23.224;;;10.628;;
59986;SDS011;46181;51.498;5.392;2023-04-08T01:01:32;31.92401;;;11.052;;
59986;SDS011;46181;51.498;5.392;2023-04-08T01:06:01;26.136;;;10.904;;
59986;SDS011;46181;51.498;5.392;2023-04-08T01:10:30;26.828;;;11.296;;
59986;SDS011;46181;51.498;5.392;2023-04-08T01:15:00;26.692;;;12.584;;
59986;SDS011;46181;51.498;5.392;2023-04-08T01:19:31;26.848;;;11.98;;
59986;SDS011;46181;51.498;5.392;2023-04-08T01:24:03;25.228;;;12.656;;
59986;SDS011;46181;51.498;5.392;2023-04-08T01:28:29;25.1;;;12.104;;
59986;SDS011;46181;51.498;5.392;2023-04-08T01:33:00;23.9;;;11.832;;
59986;SDS011;46181;51.498;5.392;2023-04-08T01:37:29;27.572;;;12.452;;
59986;SDS011;46181;51.498;5.392;2023-04-08T01:41:59;33.336;;;13.268;;
59986;SDS011;46181;51.498;5.392;2023-04-08T01:46:29;25.952;;;13.048;;
59986;SDS011;46181;51.498;5.392;2023-04-08T01:50:59;28.62;;;12.512;;
59986;SDS011;46181;51.498;5.392;2023-04-08T01:55:30;24.324;;;12.248;;
59986;SDS011;46181;51.498;5.392;2023-04-08T02:00:01;30.42;;;12.772;;
59986;SDS011;46181;51.498;5.392;2023-04-08T02:04:29;25.27201;;;11.812;;
59986;SDS011;46181;51.498;5.392;2023-04-08T02:08:59;25.836;;;12.256;;
59986;SDS011;46181;51.498;5.392;2023-04-08T02:13:30;25.828;;;12.788;;
59986;SDS011;46181;51.498;5.392;2023-04-08T02:18:02;24.132;;;12.24;;
59986;SDS011;46181;51.498;5.392;2023-04-08T02:22:32;26.952;;;11.656;;
59986;SDS011;46181;51.498;5.392;2023-04-08T02:26:59;27.58001;;;12.072;;
59986;SDS011;46181;51.498;5.392;2023-04-08T02:31:29;30.188;;;12.532;;
59986;SDS011;46181;51.498;5.392;2023-04-08T02:36:00;27.476;;;12.98;;
59986;SDS011;46181;51.498;5.392;2023-04-08T02:40:30;27.868;;;12.732;;
59986;SDS011;46181;51.498;5.392;2023-04-08T02:44:59;26.464;;;13.116;;
59986;SDS011;46181;51.498;5.392;2023-04-08T02:49:30;28.428;;;12.856;;
59986;SDS011;46181;51.498;5.392;2023-04-08T02:53:59;26.864;;;12.496;;
59986;SDS011;46181;51.498;5.392;2023-04-08T02:58:30;31.712;;;13.184;;
59986;SDS011;46181;51.498;5.392;2023-04-08T03:03:00;26.476;;;12.676;;
59986;SDS011;46181;51.498;5.392;2023-04-08T03:07:30;27.928;;;13.292;;
59986;SDS011;46181;51.498;5.392;2023-04-08T03:12:00;27.7;;;13.132;;
59986;SDS011;46181;51.498;5.392;2023-04-08T03:16:30;28.676;;;13.332;;
59986;SDS011;46181;51.498;5.392;2023-04-08T03:21:00;35.49601;;;14.392;;
59986;SDS011;46181;51.498;5.392;2023-04-08T03:25:30;30.748;;;14.216;;
59986;SDS011;46181;51.498;5.392;2023-04-08T03:30:00;31.78401;;;14.232;;
59986;SDS011;46181;51.498;5.392;2023-04-08T03:34:30;31.256;;;14.084;;
59986;SDS011;46181;51.498;5.392;2023-04-08T03:39:00;29.06001;;;14.468;;
59986;SDS011;46181;51.498;5.392;2023-04-08T03:43:30;30.86;;;14.92;;
59986;SDS011;46181;51.498;5.392;2023-04-08T03:48:00;52.84399;;;15.256;;
59986;SDS011;46181;51.498;5.392;2023-04-08T03:52:30;31.232;;;14.492;;
59986;SDS011;46181;51.498;5.392;2023-04-08T03:57:00;40.392;;;14.572;;
59986;SDS011;46181;51.498;5.392;2023-04-08T04:01:30;34.124;;;15.412;;
59986;SDS011;46181;51.498;5.392;2023-04-08T04:06:00;42.7;;;15.336;;
59986;SDS011;46181;51.498;5.392;2023-04-08T04:10:30;38.216;;;16.22;;
59986;SDS011;46181;51.498;5.392;2023-04-08T04:15:00;42.72799;;;16.252;;
59986;SDS011;46181;51.498;5.392;2023-04-08T04:19:32;46.50801;;;16.36;;
59986;SDS011;46181;51.498;5.392;2023-04-08T04:24:00;45.7;;;16.616;;
59986;SDS011;46181;51.498;5.392;2023-04-08T04:28:30;45.15599;;;16.868;;
59986;SDS011;46181;51.498;5.392;2023-04-08T04:33:00;41.032;;;16.396;;
59986;SDS011;46181;51.498;5.392;2023-04-08T04:37:30;45.61199;;;17.268;;
59986;SDS011;46181;51.498;5.392;2023-04-08T04:42:00;54.352;;;17.632;;
59986;SDS011;46181;51.498;5.392;2023-04-08T04:46:30;48.736;;;17.636;;
59986;SDS011;46181;51.498;5.392;2023-04-08T04:51:00;57.91199;;;18.684;;
59986;SDS011;46181;51.498;5.392;2023-04-08T04:55:30;66.09201;;;19.896;;
59986;SDS011;46181;51.498;5.392;2023-04-08T05:00:00;59.568;;;20.508;;
59986;SDS011;46181;51.498;5.392;2023-04-08T05:04:30;48.99599;;;19.076;;
59986;SDS011;46181;51.498;5.392;2023-04-08T05:09:00;50.032;;;19.24;;
59986;SDS011;46181;51.498;5.392;2023-04-08T05:13:30;47.2;;;18.32;;
59986;SDS011;46181;51.498;5.392;2023-04-08T05:18:00;48.10001;;;17.804;;
59986;SDS011;46181;51.498;5.392;2023-04-08T05:22:30;47.99601;;;17.3;;
59986;SDS011;46181;51.498;5.392;2023-04-08T05:27:00;39.156;;;16.312;;
59986;SDS011;46181;51.498;5.392;2023-04-08T05:31:33;35.108;;;14.536;;
59986;SDS011;46181;51.498;5.392;2023-04-08T05:36:00;32.972;;;14.332;;
59986;SDS011;46181;51.498;5.392;2023-04-08T05:40:30;34.764;;;14.728;;
59986;SDS011;46181;51.498;5.392;2023-04-08T05:45:00;38.588;;;15.264;;
59986;SDS011;46181;51.498;5.392;2023-04-08T05:49:30;32.48399;;;15.296;;
59986;SDS011;46181;51.498;5.392;2023-04-08T05:54:00;30.83199;;;14.32;;
59986;SDS011;46181;51.498;5.392;2023-04-08T05:58:30;28.484;;;13.376;;
59986;SDS011;46181;51.498;5.392;2023-04-08T06:03:00;29.47601;;;13.392;;
59986;SDS011;46181;51.498;5.392;2023-04-08T06:07:30;35.284;;;14.428;;
59986;SDS011;46181;51.498;5.392;2023-04-08T06:12:00;37.41201;;;16.264;;
59986;SDS011;46181;51.498;5.392;2023-04-08T06:16:30;34.808;;;15.336;;
59986;SDS011;46181;51.498;5.392;2023-04-08T06:21:00;33.064;;;15.44;;
59986;SDS011;46181;51.498;5.392;2023-04-08T06:25:30;32.772;;;14.996;;
59986;SDS011;46181;51.498;5.392;2023-04-08T06:30:00;32.216;;;15.236;;
59986;SDS011;46181;51.498;5.392;2023-04-08T06:34:30;28.872;;;14.536;;
59986;SDS011;46181;51.498;5.392;2023-04-08T06:39:00;20.464;;;10.988;;
59986;SDS011;46181;51.498;5.392;2023-04-08T06:43:30;20.332;;;10.208;;
59986;SDS011;46181;51.498;5.392;2023-04-08T06:48:00;20.48;;;10.336;;
59986;SDS011;46181;51.498;5.392;2023-04-08T06:52:30;21.412;;;10.124;;
59986;SDS011;46181;51.498;5.392;2023-04-08T06:57:00;20.252;;;10.604;;
59986;SDS011;46181;51.498;5.392;2023-04-08T07:01:30;21.268;;;11.284;;
59986;SDS011;46181;51.498;5.392;2023-04-08T07:06:00;23.852;;;11.264;;
59986;SDS011;46181;51.498;5.392;2023-04-08T07:10:30;20.788;;;10.504;;
59986;SDS011;46181;51.498;5.392;2023-04-08T07:15:00;21.26;;;11.256;;
59986;SDS011;46181;51.498;5.392;2023-04-08T07:19:30;22.216;;;11.468;;
59986;SDS011;46181;51.498;5.392;2023-04-08T07:24:00;20.852;;;11.724;;
59986;SDS011;46181;51.498;5.392;2023-04-08T07:28:30;23.728;;;12.072;;
59986;SDS011;46181;51.498;5.392;2023-04-08T07:33:00;21.412;;;11.98;;
59986;SDS011;46181;51.498;5.392;2023-04-08T07:37:30;22.024;;;11.484;;
59986;SDS011;46181;51.498;5.392;2023-04-08T07:42:00;22.164;;;11.804;;
59986;SDS011;46181;51.498;5.392;2023-04-08T07:46:30;22.304;;;11.844;;
59986;SDS011;46181;51.498;5.392;2023-04-08T07:51:01;19.952;;;11.264;;
59986;SDS011;46181;51.498;5.392;2023-04-08T07:55:30;22.856;;;12.556;;
59986;SDS011;46181;51.498;5.392;2023-04-08T08:00:00;20.5;;;11.316;;
59986;SDS011;46181;51.498;5.392;2023-04-08T08:04:30;22.596;;;11.792;;
59986;SDS011;46181;51.498;5.392;2023-04-08T08:09:00;21.876;;;12.352;;
59986;SDS011;46181;51.498;5.392;2023-04-08T08:13:30;22.076;;;11.66;;
59986;SDS011;46181;51.498;5.392;2023-04-08T08:18:00;22.376;;;12.068;;
59986;SDS011;46181;51.498;5.392;2023-04-08T08:22:30;22.536;;;11.844;;
59986;SDS011;46181;51.498;5.392;2023-04-08T08:27:00;21.824;;;12.36;;
59986;SDS011;46181;51.498;5.392;2023-04-08T08:31:30;23.004;;;12.744;;
59986;SDS011;46181;51.498;5.392;2023-04-08T08:36:00;20.14;;;11.048;;
59986;SDS011;46181;51.498;5.392;2023-04-08T08:40:30;18.54;;;11.472;;
59986;SDS011;46181;51.498;5.392;2023-04-08T08:45:00;18.724;;;11.088;;
59986;SDS011;46181;51.498;5.392;2023-04-08T08:49:30;21.032;;;11.236;;
59986;SDS011;46181;51.498;5.392;2023-04-08T08:54:00;19.272;;;11.632;;
59986;SDS011;46181;51.498;5.392;2023-04-08T08:58:30;22.704;;;13.36;;
59986;SDS011;46181;51.498;5.392;2023-04-08T09:03:00;22.936;;;12.396;;
59986;SDS011;46181;51.498;5.392;2023-04-08T09:07:31;22.336;;;12.028;;
59986;SDS011;46181;51.498;5.392;2023-04-08T09:12:05;24.784;;;12.872;;
59986;SDS011;46181;51.498;5.392;2023-04-08T09:16:30;23.656;;;12.676;;
59986;SDS011;46181;51.498;5.392;2023-04-08T09:21:00;21.212;;;12.58;;
59986;SDS011;46181;51.498;5.392;2023-04-08T09:25:30;23.892;;;13.12;;
59986;SDS011;46181;51.498;5.392;2023-04-08T09:34:30;24.052;;;13.46;;
59986;SDS011;46181;51.498;5.392;2023-04-08T09:39:00;24.012;;;14.532;;
59986;SDS011;46181;51.498;5.392;2023-04-08T09:43:30;25.38;;;14.948;;
59986;SDS011;46181;51.498;5.392;2023-04-08T09:48:02;24.98;;;15.068;;
59986;SDS011;46181;51.498;5.392;2023-04-08T09:52:32;23.472;;;14.244;;
59986;SDS011;46181;51.498;5.392;2023-04-08T09:57:00;25.328;;;14.816;;
59986;SDS011;46181;51.498;5.392;2023-04-08T10:01:31;26.168;;;14.728;;
59986;SDS011;46181;51.498;5.392;2023-04-08T10:06:00;23.012;;;13.82;;
59986;SDS011;46181;51.498;5.392;2023-04-08T10:10:30;22.628;;;13.604;;
59986;SDS011;46181;51.498;5.392;2023-04-08T10:19:39;20.196;;;13.06;;
59986;SDS011;46181;51.498;5.392;2023-04-08T10:24:00;20.012;;;13.184;;
59986;SDS011;46181;51.498;5.392;2023-04-08T10:28:30;20.456;;;12.84;;
59986;SDS011;46181;51.498;5.392;2023-04-08T10:33:00;20.512;;;13.128;;
59986;SDS011;46181;51.498;5.392;2023-04-08T10:37:30;19.18;;;12.748;;
59986;SDS011;46181;51.498;5.392;2023-04-08T10:42:00;19.3;;;12.696;;
59986;SDS011;46181;51.498;5.392;2023-04-08T10:46:30;18.312;;;12.796;;
59986;SDS011;46181;51.498;5.392;2023-04-08T10:51:00;20.664;;;13.652;;
59986;SDS011;46181;51.498;5.392;2023-04-08T10:55:30;20.252;;;13.328;;
59986;SDS011;46181;51.498;5.392;2023-04-08T11:00:00;19.824;;;13.604;;
59986;SDS011;46181;51.498;5.392;2023-04-08T11:04:30;18.496;;;13.47999;;
59986;SDS011;46181;51.498;5.392;2023-04-08T11:09:01;20.16;;;13.916;;
59986;SDS011;46181;51.498;5.392;2023-04-08T11:13:30;19.932;;;14.008;;
59986;SDS011;46181;51.498;5.392;2023-04-08T11:18:00;18.804;;;13.092;;
59986;SDS011;46181;51.498;5.392;2023-04-08T11:22:30;18.472;;;12.98;;
59986;SDS011;46181;51.498;5.392;2023-04-08T11:27:00;18.616;;;12.932;;
59986;SDS011;46181;51.498;5.392;2023-04-08T11:31:30;18.464;;;13.352;;
59986;SDS011;46181;51.498;5.392;2023-04-08T11:36:00;18.48;;;13.116;;
59986;SDS011;46181;51.498;5.392;2023-04-08T11:40:30;17.744;;;12.94;;
59986;SDS011;46181;51.498;5.392;2023-04-08T11:45:00;18.472;;;13.348;;
59986;SDS011;46181;51.498;5.392;2023-04-08T11:49:35;19.944;;;13.312;;
59986;SDS011;46181;51.498;5.392;2023-04-08T11:54:00;20.096;;;14.204;;
59986;SDS011;46181;51.498;5.392;2023-04-08T11:58:30;18.476;;;12.048;;
59986;SDS011;46181;51.498;5.392;2023-04-08T12:03:00;18.124;;;12.676;;
59986;SDS011;46181;51.498;5.392;2023-04-08T12:07:30;17.136;;;12.636;;
59986;SDS011;46181;51.498;5.392;2023-04-08T12:12:00;17.396;;;12.644;;
59986;SDS011;46181;51.498;5.392;2023-04-08T12:16:30;16.228;;;12.52;;
59986;SDS011;46181;51.498;5.392;2023-04-08T12:21:00;17.8;;;13.272;;
59986;SDS011;46181;51.498;5.392;2023-04-08T12:25:30;18.492;;;13.044;;
59986;SDS011;46181;51.498;5.392;2023-04-08T12:30:00;17.1;;;11.796;;
59986;SDS011;46181;51.498;5.392;2023-04-08T12:34:30;15.236;;;10.316;;
59986;SDS011;46181;51.498;5.392;2023-04-08T12:39:00;15.428;;;10.868;;
59986;SDS011;46181;51.498;5.392;2023-04-08T12:43:30;15.58;;;10.932;;
59986;SDS011;46181;51.498;5.392;2023-04-08T12:48:00;14.896;;;10.804;;
59986;SDS011;46181;51.498;5.392;2023-04-08T12:52:30;14.436;;;9.711999;;
59986;SDS011;46181;51.498;5.392;2023-04-08T12:57:00;14.108;;;10.452;;
59986;SDS011;46181;51.498;5.392;2023-04-08T13:01:30;15.336;;;10.54;;
59986;SDS011;46181;51.498;5.392;2023-04-08T13:06:00;15.52;;;10.948;;
59986;SDS011;46181;51.498;5.392;2023-04-08T13:10:30;12.668;;;9.496001;;
59986;SDS011;46181;51.498;5.392;2023-04-08T13:15:00;14.224;;;10.32;;
59986;SDS011;46181;51.498;5.392;2023-04-08T13:19:30;16.152;;;10.192;;
59986;SDS011;46181;51.498;5.392;2023-04-08T13:24:00;14.136;;;9.960001;;
59986;SDS011;46181;51.498;5.392;2023-04-08T13:28:30;15.736;;;10.792;;
59986;SDS011;46181;51.498;5.392;2023-04-08T13:33:00;15.524;;;11.036;;
59986;SDS011;46181;51.498;5.392;2023-04-08T13:37:30;14.008;;;11.036;;
59986;SDS011;46181;51.498;5.392;2023-04-08T13:42:00;15.12;;;11.52;;
59986;SDS011;46181;51.498;5.392;2023-04-08T13:46:30;16.508;;;12.328;;
59986;SDS011;46181;51.498;5.392;2023-04-08T13:51:00;16.64;;;12.576;;
59986;SDS011;46181;51.498;5.392;2023-04-08T13:55:30;18.22;;;13.46;;
59986;SDS011;46181;51.498;5.392;2023-04-08T14:00:00;16.06;;;12.292;;
59986;SDS011;46181;51.498;5.392;2023-04-08T14:04:30;16;;;12.092;;
59986;SDS011;46181;51.498;5.392;2023-04-08T14:09:00;15.716;;;11.528;;
59986;SDS011;46181;51.498;5.392;2023-04-08T14:13:30;16.392;;;12.216;;
59986;SDS011;46181;51.498;5.392;2023-04-08T14:18:00;13.68;;;11.512;;
59986;SDS011;46181;51.498;5.392;2023-04-08T14:22:30;14.568;;;11.116;;
59986;SDS011;46181;51.498;5.392;2023-04-08T14:27:00;15.172;;;11.104;;
59986;SDS011;46181;51.498;5.392;2023-04-08T14:31:30;16.612;;;11.312;;
59986;SDS011;46181;51.498;5.392;2023-04-08T14:36:00;16.444;;;12.108;;
59986;SDS011;46181;51.498;5.392;2023-04-08T14:40:30;14.42;;;10.688;;
59986;SDS011;46181;51.498;5.392;2023-04-08T14:45:00;13.068;;;9.771998;;
59986;SDS011;46181;51.498;5.392;2023-04-08T14:49:30;14.848;;;9.711999;;
59986;SDS011;46181;51.498;5.392;2023-04-08T14:54:00;14.976;;;10.304;;
59986;SDS011;46181;51.498;5.392;2023-04-08T14:58:30;12.76;;;8.948002;;
59986;SDS011;46181;51.498;5.392;2023-04-08T15:03:00;14.16;;;9.620001;;
59986;SDS011;46181;51.498;5.392;2023-04-08T15:07:30;15.368;;;9.560001;;
59986;SDS011;46181;51.498;5.392;2023-04-08T15:12:00;13.968;;;9.892001;;
59986;SDS011;46181;51.498;5.392;2023-04-08T15:16:30;12.432;;;9.251999;;
59986;SDS011;46181;51.498;5.392;2023-04-08T15:21:00;12.388;;;9.508;;
59986;SDS011;46181;51.498;5.392;2023-04-08T15:25:30;12.988;;;9.628002;;
59986;SDS011;46181;51.498;5.392;2023-04-08T15:30:00;13.356;;;9.956;;
59986;SDS011;46181;51.498;5.392;2023-04-08T15:34:30;14.98;;;9.811999;;
59986;SDS011;46181;51.498;5.392;2023-04-08T15:39:00;12.376;;;9.619999;;
59986;SDS011;46181;51.498;5.392;2023-04-08T15:43:30;12.692;;;9.308;;
59986;SDS011;46181;51.498;5.392;2023-04-08T15:48:00;12.004;;;8.516;;
59986;SDS011;46181;51.498;5.392;2023-04-08T15:52:30;13.16;;;9.083999;;
59986;SDS011;46181;51.498;5.392;2023-04-08T15:57:00;12.708;;;9.524001;;
59986;SDS011;46181;51.498;5.392;2023-04-08T16:01:30;12.232;;;9.088001;;
59986;SDS011;46181;51.498;5.392;2023-04-08T16:06:00;13.124;;;9.460001;;
59986;SDS011;46181;51.498;5.392;2023-04-08T16:10:30;12.684;;;9.308001;;
59986;SDS011;46181;51.498;5.392;2023-04-08T16:15:00;12.26;;;8.983999;;
59986;SDS011;46181;51.498;5.392;2023-04-08T16:19:30;11.984;;;9.02;;
59986;SDS011;46181;51.498;5.392;2023-04-08T16:24:00;13.14;;;8.624001;;
59986;SDS011;46181;51.498;5.392;2023-04-08T16:28:30;16.828;;;11.252;;
59986;SDS011;46181;51.498;5.392;2023-04-08T16:33:00;12.84;;;9.099998;;
59986;SDS011;46181;51.498;5.392;2023-04-08T16:37:31;28.392;;;14.58;;
59986;SDS011;46181;51.498;5.392;2023-04-08T16:42:00;13.752;;;9.552001;;
59986;SDS011;46181;51.498;5.392;2023-04-08T16:46:30;10.676;;;7.78;;
59986;SDS011;46181;51.498;5.392;2023-04-08T16:51:00;10.384;;;7.999999;;
59986;SDS011;46181;51.498;5.392;2023-04-08T16:55:30;9.315999;;;6.783999;;
59986;SDS011;46181;51.498;5.392;2023-04-08T17:00:00;10.556;;;7.215999;;
59986;SDS011;46181;51.498;5.392;2023-04-08T17:04:30;9.551999;;;7.235998;;
59986;SDS011;46181;51.498;5.392;2023-04-08T17:09:00;10.26;;;6.908;;
59986;SDS011;46181;51.498;5.392;2023-04-08T17:13:30;9.564001;;;6.380001;;
59986;SDS011;46181;51.498;5.392;2023-04-08T17:18:00;10.296;;;6.56;;
59986;SDS011;46181;51.498;5.392;2023-04-08T17:22:30;9.124001;;;6.028;;
59986;SDS011;46181;51.498;5.392;2023-04-08T17:27:00;8.952;;;5.932001;;
59986;SDS011;46181;51.498;5.392;2023-04-08T17:31:30;9.1;;;6.372;;
59986;SDS011;46181;51.498;5.392;2023-04-08T17:36:00;8.627998;;;5.972;;
59986;SDS011;46181;51.498;5.392;2023-04-08T17:40:30;8.055999;;;5.852001;;
59986;SDS011;46181;51.498;5.392;2023-04-08T17:45:00;8.700001;;;6.024001;;
59986;SDS011;46181;51.498;5.392;2023-04-08T17:49:30;8.56;;;6.236;;
59986;SDS011;46181;51.498;5.392;2023-04-08T17:54:00;11.408;;;7.18;;
59986;SDS011;46181;51.498;5.392;2023-04-08T17:58:30;8.987999;;;5.967999;;
59986;SDS011;46181;51.498;5.392;2023-04-08T18:03:00;10.116;;;6.111998;;
59986;SDS011;46181;51.498;5.392;2023-04-08T18:07:30;10.508;;;6.724;;
59986;SDS011;46181;51.498;5.392;2023-04-08T18:12:00;11.352;;;7.444;;
59986;SDS011;46181;51.498;5.392;2023-04-08T18:16:30;13.384;;;8.448001;;
59986;SDS011;46181;51.498;5.392;2023-04-08T18:21:00;13.608;;;9.348001;;
59986;SDS011;46181;51.498;5.392;2023-04-08T18:25:30;15.416;;;9.407999;;
59986;SDS011;46181;51.498;5.392;2023-04-08T18:30:00;14.072;;;10.496;;
59986;SDS011;46181;51.498;5.392;2023-04-08T18:34:30;12.608;;;8.719999;;
59986;SDS011;46181;51.498;5.392;2023-04-08T18:39:00;10.536;;;8.112;;
59986;SDS011;46181;51.498;5.392;2023-04-08T18:43:30;11.82;;;7.892001;;
59986;SDS011;46181;51.498;5.392;2023-04-08T18:48:00;11.072;;;7.988002;;
59986;SDS011;46181;51.498;5.392;2023-04-08T18:52:30;10.836;;;7.9;;
59986;SDS011;46181;51.498;5.392;2023-04-08T18:57:00;11.216;;;8.123999;;
59986;SDS011;46181;51.498;5.392;2023-04-08T19:01:30;11.76;;;7.623999;;
59986;SDS011;46181;51.498;5.392;2023-04-08T19:06:00;12.744;;;8.364;;
59986;SDS011;46181;51.498;5.392;2023-04-08T19:10:32;14.164;;;8.688;;
59986;SDS011;46181;51.498;5.392;2023-04-08T19:15:00;21.66;;;13.96;;
59986;SDS011;46181;51.498;5.392;2023-04-08T19:19:30;14.76;;;10.824;;
59986;SDS011;46181;51.498;5.392;2023-04-08T19:24:00;15.916;;;11.628;;
59986;SDS011;46181;51.498;5.392;2023-04-08T19:28:30;14.952;;;10.232;;
59986;SDS011;46181;51.498;5.392;2023-04-08T19:33:00;13.88;;;9.196;;
59986;SDS011;46181;51.498;5.392;2023-04-08T19:37:30;14.184;;;9.275999;;
59986;SDS011;46181;51.498;5.392;2023-04-08T19:42:00;15.004;;;9.907999;;
59986;SDS011;46181;51.498;5.392;2023-04-08T19:46:30;16.472;;;10.42;;
59986;SDS011;46181;51.498;5.392;2023-04-08T19:51:00;14.52;;;10.076;;
59986;SDS011;46181;51.498;5.392;2023-04-08T19:55:30;18.284;;;11.316;;
59986;SDS011;46181;51.498;5.392;2023-04-08T20:00:00;16.796;;;11.844;;
59986;SDS011;46181;51.498;5.392;2023-04-08T20:04:30;17.392;;;11.12;;
59986;SDS011;46181;51.498;5.392;2023-04-08T20:09:00;15.856;;;10.964;;
59986;SDS011;46181;51.498;5.392;2023-04-08T20:13:30;16.716;;;10.672;;
59986;SDS011;46181;51.498;5.392;2023-04-08T20:18:01;14.916;;;10.704;;
59986;SDS011;46181;51.498;5.392;2023-04-08T20:22:30;16.964;;;11.128;;
59986;SDS011;46181;51.498;5.392;2023-04-08T20:27:00;17.32;;;12.792;;
59986;SDS011;46181;51.498;5.392;2023-04-08T20:31:30;17.632;;;11.448;;
59986;SDS011;46181;51.498;5.392;2023-04-08T20:36:00;16.368;;;11.36;;
59986;SDS011;46181;51.498;5.392;2023-04-08T20:40:30;18.308;;;12.972;;
59986;SDS011;46181;51.498;5.392;2023-04-08T20:45:00;18.824;;;13.164;;
59986;SDS011;46181;51.498;5.392;2023-04-08T20:49:30;19.072;;;13.972;;
59986;SDS011;46181;51.498;5.392;2023-04-08T20:54:00;19.068;;;13.26;;
59986;SDS011;46181;51.498;5.392;2023-04-08T20:58:30;19.204;;;12.996;;
59986;SDS011;46181;51.498;5.392;2023-04-08T21:03:00;18.404;;;12.244;;
59986;SDS011;46181;51.498;5.392;2023-04-08T21:07:30;17.788;;;11.996;;
59986;SDS011;46181;51.498;5.392;2023-04-08T21:12:00;17.632;;;12.02;;
59986;SDS011;46181;51.498;5.392;2023-04-08T21:16:30;15.276;;;11.64;;
59986;SDS011;46181;51.498;5.392;2023-04-08T21:21:00;15.256;;;11.624;;
59986;SDS011;46181;51.498;5.392;2023-04-08T21:25:30;15.876;;;11.204;;
59986;SDS011;46181;51.498;5.392;2023-04-08T21:30:00;15.972;;;11.368;;
59986;SDS011;46181;51.498;5.392;2023-04-08T21:34:30;15.376;;;10.732;;
59986;SDS011;46181;51.498;5.392;2023-04-08T21:39:00;16.08;;;11.404;;
59986;SDS011;46181;51.498;5.392;2023-04-08T21:43:30;15.512;;;11.276;;
59986;SDS011;46181;51.498;5.392;2023-04-08T21:48:00;15.304;;;11.408;;
59986;SDS011;46181;51.498;5.392;2023-04-08T21:52:30;16.02;;;11.152;;
59986;SDS011;46181;51.498;5.392;2023-04-08T21:57:00;15.96;;;11.124;;
59986;SDS011;46181;51.498;5.392;2023-04-08T22:01:30;14.54;;;10.58;;
59986;SDS011;46181;51.498;5.392;2023-04-08T22:06:00;13.236;;;9.7;;
59986;SDS011;46181;51.498;5.392;2023-04-08T22:10:30;15.432;;;10.516;;
59986;SDS011;46181;51.498;5.392;2023-04-08T22:15:00;16.48;;;10.86;;
59986;SDS011;46181;51.498;5.392;2023-04-08T22:19:30;15.772;;;10.956;;
59986;SDS011;46181;51.498;5.392;2023-04-08T22:24:00;16.556;;;10.452;;
59986;SDS011;46181;51.498;5.392;2023-04-08T22:28:30;16.024;;;10.924;;
59986;SDS011;46181;51.498;5.392;2023-04-08T22:33:00;17.292;;;11.36;;
59986;SDS011;46181;51.498;5.392;2023-04-08T22:37:30;18.348;;;12.368;;
59986;SDS011;46181;51.498;5.392;2023-04-08T22:42:00;18.884;;;12.448;;
59986;SDS011;46181;51.498;5.392;2023-04-08T22:46:30;18.728;;;13.248;;
59986;SDS011;46181;51.498;5.392;2023-04-08T22:51:00;20.396;;;13.096;;
59986;SDS011;46181;51.498;5.392;2023-04-08T22:55:30;20.036;;;13.344;;
59986;SDS011;46181;51.498;5.392;2023-04-08T23:00:00;17.784;;;12.864;;
59986;SDS011;46181;51.498;5.392;2023-04-08T23:04:30;19.748;;;13.376;;
59986;SDS011;46181;51.498;5.392;2023-04-08T23:09:00;24.172;;;16.88;;
59986;SDS011;46181;51.498;5.392;2023-04-08T23:13:30;25.792;;;17.508;;
59986;SDS011;46181;51.498;5.392;2023-04-08T23:18:00;28.268;;;18.952;;
59986;SDS011;46181;51.498;5.392;2023-04-08T23:22:30;28.34;;;18.876;;
59986;SDS011;46181;51.498;5.392;2023-04-08T23:27:00;30.82;;;20.288;;
59986;SDS011;46181;51.498;5.392;2023-04-08T23:31:30;44.972;;;25.532;;
59986;SDS011;46181;51.498;5.392;2023-04-08T23:36:00;45.452;;;25.984;;
59986;SDS011;46181;51.498;5.392;2023-04-08T23:40:30;47.936;;;26.516;;
59986;SDS011;46181;51.498;5.392;2023-04-08T23:45:00;46.076;;;25.728;;
59986;SDS011;46181;51.498;5.392;2023-04-08T23:49:30;45.156;;;25.892;;
59986;SDS011;46181;51.498;5.392;2023-04-08T23:54:00;43.95601;;;24.872;;
59986;SDS011;46181;51.498;5.392;2023-04-08T23:58:30;42.196;;;23.94;;
